Time;durP1;ratioP1;P1;durP2;ratioP2;P2;SDS_P1;SDS_P2;PMS_P1;PMS_P2;Temp;Humidity;BMP_temperature;BMP_pressure;BME280_temperature;BME280_humidity;BME280_pressure;Samples;Min_cycle;Max_cycle;Signal;HPM_P1;HPM_P2
2023/01/04 00:01:38;;;;;;;5.72;3.50;;;;;;;16.44;64.73;101534.44;5135121;27;20407;-58
2023/01/04 00:04:06;;;;;;;5.68;3.47;;;;;;;16.42;64.85;101531.00;5134815;27;20122;-57
2023/01/04 00:06:34;;;;;;;5.57;3.40;;;;;;;16.38;64.81;101529.44;5134930;27;20050;-57
2023/01/04 00:09:02;;;;;;;5.38;3.33;;;;;;;16.36;64.81;101535.91;5134777;27;20047;-57
2023/01/04 00:11:35;;;;;;;5.20;3.20;;;;;;;16.33;64.83;101536.97;5134870;27;20043;-58
2023/01/04 00:14:03;;;;;;;5.90;3.58;;;;;;;16.29;64.87;101522.81;5134678;27;20088;-58
2023/01/04 00:16:31;;;;;;;6.15;3.63;;;;;;;16.28;64.76;101539.06;5134675;27;20116;-58
2023/01/04 00:19:00;;;;;;;5.47;3.45;;;;;;;16.25;64.65;101536.59;5133960;27;20406;-58
2023/01/04 00:21:30;;;;;;;5.45;3.47;;;;;;;16.22;64.63;101539.50;5134743;27;20043;-58
2023/01/04 00:24:00;;;;;;;5.65;3.33;;;;;;;16.19;64.61;101545.91;5116175;27;20429;-58
2023/01/04 00:26:29;;;;;;;5.47;3.30;;;;;;;16.15;64.64;101543.53;5134594;27;20073;-58
2023/01/04 00:29:01;;;;;;;5.20;3.28;;;;;;;16.13;64.63;101542.75;5134488;27;20476;-58
2023/01/04 00:31:29;;;;;;;5.57;3.55;;;;;;;16.11;64.59;101539.28;5115787;27;20579;-58
2023/01/04 00:34:00;;;;;;;4.82;2.95;;;;;;;16.08;64.46;101547.56;5134305;27;20556;-57
2023/01/04 00:36:28;;;;;;;6.32;3.85;;;;;;;16.05;64.78;101553.13;5115864;27;20099;-57
2023/01/04 00:39:08;;;;;;;5.43;3.20;;;;;;;16.02;64.60;101547.00;5134318;27;20156;-58
2023/01/04 00:41:39;;;;;;;5.05;3.40;;;;;;;15.99;64.80;101549.84;5134301;27;20092;-58
2023/01/04 00:44:29;;;;;;;5.50;3.63;;;;;;;15.96;64.63;101550.06;5134008;27;20091;-58
2023/01/04 00:46:57;;;;;;;5.55;3.55;;;;;;;15.94;64.64;101551.97;5134116;27;20461;-58
2023/01/04 00:49:27;;;;;;;5.97;3.45;;;;;;;15.92;64.64;101547.63;5115568;27;20057;-58
2023/01/04 00:51:55;;;;;;;5.57;3.50;;;;;;;15.89;64.71;101559.47;5133927;27;20053;-58
2023/01/04 00:54:24;;;;;;;5.72;3.58;;;;;;;15.86;64.79;101551.59;5133833;27;20043;-57
2023/01/04 00:56:52;;;;;;;5.25;3.30;;;;;;;15.84;64.74;101558.03;5133909;27;20126;-58
2023/01/04 00:59:21;;;;;;;5.38;3.60;;;;;;;15.81;64.76;101551.00;5133782;27;20043;-58
2023/01/04 01:01:51;;;;;;;4.80;3.25;;;;;;;15.80;64.59;101561.84;5133962;27;20071;-58
2023/01/04 01:04:22;;;;;;;5.63;3.20;;;;;;;15.77;64.83;101557.53;5133739;27;20047;-58
2023/01/04 01:06:52;;;;;;;5.60;3.58;;;;;;;15.75;64.77;101556.75;5133546;27;20063;-58
2023/01/04 01:09:22;;;;;;;5.10;3.22;;;;;;;15.73;64.89;101564.06;5133476;27;20066;-58
2023/01/04 01:11:51;;;;;;;4.85;3.15;;;;;;;15.71;64.71;101568.66;5133565;27;20127;-58
2023/01/04 01:14:22;;;;;;;4.88;3.08;;;;;;;15.69;64.72;101567.88;5115036;27;20047;-58
2023/01/04 01:16:51;;;;;;;5.55;3.30;;;;;;;15.67;64.67;101570.69;5133573;27;20039;-58
2023/01/04 01:19:24;;;;;;;5.75;3.40;;;;;;;15.65;64.73;101569.03;5133255;27;20047;-58
2023/01/04 01:21:52;;;;;;;4.60;3.13;;;;;;;15.63;64.76;101570.94;5133480;27;20991;-58
2023/01/04 01:24:20;;;;;;;5.82;3.38;;;;;;;15.62;64.65;101566.53;5133340;27;20047;-58
2023/01/04 01:26:49;;;;;;;5.90;3.45;;;;;;;15.59;64.68;101569.38;5133398;27;20065;-57
2023/01/04 01:29:17;;;;;;;4.57;3.03;;;;;;;15.58;64.69;101570.34;5114010;27;20047;-58
2023/01/04 01:31:45;;;;;;;5.03;3.30;;;;;;;15.54;64.56;101566.06;5133258;27;20104;-58
2023/01/04 01:34:15;;;;;;;4.97;3.20;;;;;;;15.52;64.56;101563.47;5133185;27;20131;-58
2023/01/04 01:36:43;;;;;;;5.10;3.05;;;;;;;15.50;64.66;101559.16;5133261;27;20043;-58
2023/01/04 01:39:11;;;;;;;4.97;3.28;;;;;;;15.48;64.64;101566.47;5133184;27;20051;-58
2023/01/04 01:41:40;;;;;;;5.82;3.67;;;;;;;15.45;64.65;101565.69;5133199;27;20407;-58
2023/01/04 01:44:41;;;;;;;5.43;3.53;;;;;;;15.43;64.74;101556.84;5133132;27;20492;-57
2023/01/04 01:47:14;;;;;;;5.40;3.35;;;;;;;15.40;64.51;101553.47;5133040;27;20077;-58
2023/01/04 01:49:46;;;;;;;4.63;3.30;;;;;;;15.37;64.64;101557.22;5133066;27;20852;-58
2023/01/04 01:52:18;;;;;;;5.13;3.20;;;;;;;15.34;64.30;101560.06;5132934;27;20051;-58
2023/01/04 01:54:52;;;;;;;4.78;2.97;;;;;;;15.33;64.47;101558.34;5132912;27;20043;-58
2023/01/04 01:57:25;;;;;;;4.63;3.08;;;;;;;15.31;64.48;101546.81;5133118;27;20108;-57
2023/01/04 02:00:02;;;;;;;5.60;3.45;;;;;;;15.29;64.42;101551.44;5132956;27;20039;-57
2023/01/04 02:02:31;;;;;;;5.50;3.20;;;;;;;15.26;64.37;101554.31;5132890;27;20042;-58
2023/01/04 02:05:03;;;;;;;5.15;3.50;;;;;;;15.25;64.54;101560.63;5132710;27;20057;-57
2023/01/04 02:07:31;;;;;;;4.93;2.95;;;;;;;15.23;64.54;101559.84;5132618;27;20134;-59
2023/01/04 02:10:02;;;;;;;4.95;3.17;;;;;;;15.20;64.45;101565.41;5132567;27;20088;-58
2023/01/04 02:12:32;;;;;;;5.18;3.00;;;;;;;15.18;64.56;101561.94;5132591;27;20070;-58
2023/01/04 02:15:01;;;;;;;5.15;2.90;;;;;;;15.16;64.59;101559.34;5132656;28;20051;-57
2023/01/04 02:17:39;;;;;;;4.75;2.92;;;;;;;15.14;64.53;101561.25;5132567;28;20050;-57
2023/01/04 02:20:27;;;;;;;5.40;3.30;;;;;;;15.12;64.57;101556.91;5132498;28;20057;-57
2023/01/04 02:23:38;;;;;;;4.38;2.63;;;;;;;15.11;64.46;101560.56;5132742;28;20047;-57
2023/01/04 02:26:38;;;;;;;4.78;2.90;;;;;;;15.08;64.46;101558.94;5132609;28;20100;-57
2023/01/04 02:29:33;;;;;;;5.03;2.95;;;;;;;15.06;64.47;101557.31;5132584;28;20043;-57
2023/01/04 02:32:09;;;;;;;5.20;3.00;;;;;;;15.04;64.45;101559.19;5097740;28;20561;-56
2023/01/04 02:34:46;;;;;;;4.55;3.10;;;;;;;15.02;64.52;101566.47;5132456;28;20486;-57
2023/01/04 02:37:25;;;;;;;4.65;3.00;;;;;;;14.99;64.54;101566.66;5114016;28;20046;-57
2023/01/04 02:40:06;;;;;;;5.10;3.10;;;;;;;14.98;64.43;101557.75;5113963;27;20051;-57
2023/01/04 02:45:37;;;;;;;4.97;3.10;;;;;;;14.94;64.46;101566.91;5133990;27;20096;-57
2023/01/04 02:50:55;;;;;;;4.43;2.75;;;;;;;14.89;64.43;101556.44;5115887;28;20078;-56
2023/01/04 02:53:28;;;;;;;4.65;2.95;;;;;;;14.88;64.34;101560.09;5115662;28;20059;-57
2023/01/04 02:56:12;;;;;;;4.75;2.90;;;;;;;14.86;64.44;101551.25;5115728;28;20035;-59
2023/01/04 02:59:00;;;;;;;5.20;2.92;;;;;;;14.84;64.40;101550.47;5115736;28;20047;-58
2023/01/04 03:07:39;;;;;;;4.07;2.65;;;;;;;14.77;64.28;101529.44;5136151;27;20047;-56
2023/01/04 03:10:18;;;;;;;3.88;2.60;;;;;;;14.77;64.37;101537.50;5135808;27;20058;-59
2023/01/04 03:12:51;;;;;;;3.88;2.60;;;;;;;14.75;64.30;101537.56;5135807;27;20050;-56
2023/01/04 03:15:23;;;;;;;4.33;2.70;;;;;;;14.72;64.41;101548.47;5136014;27;20047;-57
2023/01/04 03:17:55;;;;;;;4.28;2.58;;;;;;;14.71;64.33;101549.44;5135928;27;20047;-57
2023/01/04 03:20:31;;;;;;;5.30;3.08;;;;;;;14.71;64.26;101551.25;5135815;27;20066;-57
2023/01/04 03:37:12;;;;;;;4.30;2.63;;;;;;;14.58;64.20;101551.97;5135463;27;20047;-57
2023/01/04 03:48:39;;;;;;;4.70;3.00;;;;;;;14.50;64.09;101542.59;5135193;27;20065;-57
2023/01/04 03:51:14;;;;;;;4.40;2.78;;;;;;;14.49;64.17;101540.88;5135259;27;20043;-56
2023/01/04 03:53:54;;;;;;;5.28;2.70;;;;;;;14.47;64.15;101542.75;5134218;27;20047;-56
2023/01/04 03:56:24;;;;;;;4.38;2.70;;;;;;;14.45;64.12;101542.84;5135093;27;20563;-56
2023/01/04 03:58:53;;;;;;;5.15;3.00;;;;;;;14.44;64.02;101537.53;5135017;27;20043;-56
2023/01/04 04:01:24;;;;;;;4.60;2.72;;;;;;;14.42;64.12;101537.63;5135012;27;20068;-57
2023/01/04 04:09:26;;;;;;;4.45;2.65;;;;;;;14.37;64.13;101531.63;5134726;27;20676;-57
2023/01/04 04:11:54;;;;;;;4.72;3.05;;;;;;;14.38;64.19;101532.50;5134804;27;20054;-57
2023/01/04 04:14:22;;;;;;;4.00;2.60;;;;;;;14.35;64.03;101536.22;5134767;27;20047;-57
2023/01/04 04:16:50;;;;;;;4.97;2.80;;;;;;;14.34;64.13;101545.22;5134781;27;20396;-56
2023/01/04 04:19:19;;;;;;;4.80;2.92;;;;;;;14.32;64.12;101539.94;5134614;27;20538;-57
2023/01/04 04:21:47;;;;;;;4.63;2.67;;;;;;;14.30;64.19;101541.84;5134745;27;20428;-57
2023/01/04 04:24:18;;;;;;;5.13;2.78;;;;;;;14.29;64.09;101550.00;5134784;27;20047;-57
2023/01/04 04:26:48;;;;;;;4.75;2.90;;;;;;;14.29;64.14;101555.38;5134744;27;20051;-57
2023/01/04 04:29:17;;;;;;;4.78;2.88;;;;;;;14.27;64.14;101552.75;5134439;27;20468;-57
2023/01/04 04:31:45;;;;;;;4.72;2.67;;;;;;;14.27;64.09;101557.25;5134402;27;20043;-57
2023/01/04 04:34:14;;;;;;;4.78;2.70;;;;;;;14.25;64.10;101548.41;5134302;27;20487;-58
2023/01/04 04:36:42;;;;;;;4.10;2.80;;;;;;;14.22;64.11;101557.50;5134471;27;20035;-58
2023/01/04 04:39:11;;;;;;;4.80;2.95;;;;;;;14.26;64.05;101561.75;5115772;27;20044;-58
2023/01/04 04:41:40;;;;;;;4.45;3.10;;;;;;;14.30;64.05;101566.00;5134238;27;20043;-58
2023/01/04 04:44:12;;;;;;;4.53;2.63;;;;;;;14.35;64.23;101556.84;5134236;27;20127;-57
2023/01/04 04:46:40;;;;;;;5.07;2.92;;;;;;;14.42;64.40;101560.91;5133934;27;20066;-58
2023/01/04 04:49:09;;;;;;;5.00;2.70;;;;;;;14.51;64.34;101561.31;5134111;27;20047;-57
2023/01/04 04:51:38;;;;;;;4.30;2.70;;;;;;;14.61;64.37;101556.28;5134118;27;20074;-58
2023/01/04 04:54:09;;;;;;;5.18;2.60;;;;;;;14.71;64.18;101557.50;5133895;27;20476;-57
2023/01/04 04:56:37;;;;;;;4.85;2.80;;;;;;;14.80;64.18;101561.47;5133957;27;20051;-57
2023/01/04 04:59:09;;;;;;;4.25;2.70;;;;;;;14.91;64.06;101558.16;5133660;27;20051;-55
2023/01/04 05:01:39;;;;;;;4.05;2.40;;;;;;;15.00;63.96;101557.66;5133791;27;20882;-57
2023/01/04 05:04:07;;;;;;;4.22;2.72;;;;;;;15.10;63.70;101558.84;5133594;27;20043;-58
2023/01/04 05:06:35;;;;;;;4.78;2.75;;;;;;;15.20;63.70;101561.84;5133744;27;20071;-58
2023/01/04 05:09:03;;;;;;;4.13;2.47;;;;;;;15.31;63.50;101565.63;5133436;27;20047;-58
2023/01/04 05:14:16;;;;;;;4.28;2.40;;;;;;;15.49;63.09;101560.13;5133628;27;20055;-58
2023/01/04 05:16:46;;;;;;;4.63;2.60;;;;;;;15.56;63.09;101566.88;5133651;27;20077;-57
2023/01/04 05:19:14;;;;;;;4.40;2.60;;;;;;;15.64;62.92;101575.38;5133471;27;20047;-57
2023/01/04 05:21:42;;;;;;;4.20;2.40;;;;;;;15.74;62.81;101571.19;5133499;27;20473;-57
2023/01/04 05:24:12;;;;;;;4.50;2.42;;;;;;;15.82;62.69;101579.63;5133316;27;20047;-56
2023/01/04 05:26:40;;;;;;;3.60;2.40;;;;;;;15.91;62.54;101572.81;5133428;27;20043;-57
2023/01/04 05:30:49;;;;;;;4.50;2.78;;;;;;;15.95;62.49;101567.16;5133412;27;20130;-56
2023/01/04 05:31:57;;;;;;;4.30;2.63;;;;;;;16.01;62.45;101580.22;5133364;27;20047;-57
2023/01/04 05:34:25;;;;;;;4.25;2.72;;;;;;;16.02;62.41;101573.03;5132944;27;20043;-57
2023/01/04 05:36:53;;;;;;;4.28;2.55;;;;;;;16.02;62.19;101573.03;5133195;27;20071;-56
2023/01/04 05:39:21;;;;;;;4.72;2.78;;;;;;;16.01;62.23;101573.97;5133050;27;20051;-57
2023/01/04 05:44:43;;;;;;;;;;;;;;;15.96;62.14;101582.34;5084888;27;20062;-57
2023/01/04 05:47:13;;;;;;;4.30;2.75;;;;;;;15.93;62.15;101581.69;5132905;27;19920;-57
2023/01/04 05:49:42;;;;;;;4.88;3.05;;;;;;;15.89;62.28;101585.50;5132886;27;20035;-56
2023/01/04 05:52:11;;;;;;;4.65;2.53;;;;;;;15.85;62.34;101584.84;5132833;27;20039;-58
2023/01/04 05:54:39;;;;;;;5.22;3.13;;;;;;;15.83;62.24;101585.91;5132910;27;20423;-57
2023/01/04 05:57:08;;;;;;;4.13;2.58;;;;;;;15.80;62.17;101586.06;5132784;27;20454;-57
2023/01/04 05:59:36;;;;;;;4.57;2.88;;;;;;;15.74;62.12;101580.13;5132642;27;20039;-57
2023/01/04 06:02:16;;;;;;;4.67;2.97;;;;;;;15.72;62.15;101591.91;5132616;27;20122;-57
2023/01/04 06:04:45;;;;;;;5.00;3.13;;;;;;;15.69;62.19;101589.41;5132627;27;20491;-57
2023/01/04 06:07:13;;;;;;;4.57;2.80;;;;;;;15.64;62.14;101595.06;5132499;27;20104;-58
2023/01/04 06:09:42;;;;;;;5.43;3.10;;;;;;;15.60;62.26;101584.53;5105995;28;20090;-57
2023/01/04 06:12:11;;;;;;;5.93;3.25;;;;;;;15.56;62.20;101588.38;5112026;28;20044;-57
2023/01/04 06:14:40;;;;;;;5.07;3.25;;;;;;;15.53;62.18;101593.94;5111793;28;20464;-58
2023/01/04 06:17:09;;;;;;;4.72;2.60;;;;;;;15.49;62.12;101598.63;5093192;28;20044;-57
2023/01/04 06:19:40;;;;;;;5.05;3.05;;;;;;;15.45;62.04;101592.59;5093781;28;20419;-57
2023/01/04 06:22:08;;;;;;;6.03;3.20;;;;;;;15.41;62.09;101599.09;5111935;28;20101;-56
2023/01/04 06:24:36;;;;;;;4.78;3.15;;;;;;;15.38;62.15;101599.28;5111987;28;20039;-57
2023/01/04 06:27:05;;;;;;;4.55;3.00;;;;;;;15.34;62.05;101604.91;5111844;28;20385;-57
2023/01/04 06:29:34;;;;;;;4.57;3.22;;;;;;;15.30;62.02;101609.59;5111783;28;20400;-57
2023/01/04 06:32:02;;;;;;;4.70;2.90;;;;;;;15.26;62.08;101604.50;5111732;28;20044;-56
2023/01/04 06:34:30;;;;;;;4.97;3.15;;;;;;;15.24;62.07;101612.63;5111569;28;20047;-58
2023/01/04 06:37:00;;;;;;;5.45;3.20;;;;;;;15.18;61.99;101611.19;5111714;28;20116;-57
2023/01/04 06:39:28;;;;;;;5.30;3.25;;;;;;;15.16;61.95;101609.56;5111483;28;20048;-57
2023/01/04 06:41:56;;;;;;;5.05;3.05;;;;;;;15.11;61.86;101603.56;5111784;28;20446;-57
2023/01/04 06:44:33;;;;;;;5.05;3.35;;;;;;;15.08;61.83;101607.31;5118857;28;20043;-57
2023/01/04 06:47:01;;;;;;;5.05;3.30;;;;;;;15.05;61.77;101603.91;5117024;28;20094;-57
2023/01/04 06:49:30;;;;;;;4.60;3.03;;;;;;;15.03;61.86;101613.88;5122178;28;20047;-57
2023/01/04 06:51:59;;;;;;;4.93;3.22;;;;;;;15.00;61.88;101612.25;5119599;28;20114;-57
2023/01/04 06:54:28;;;;;;;5.18;3.13;;;;;;;14.97;61.90;101609.75;5102988;28;20545;-57
2023/01/04 06:56:56;;;;;;;6.65;3.40;;;;;;;14.93;61.74;101608.16;5121334;28;20092;-56
2023/01/04 06:59:25;;;;;;;6.10;3.60;;;;;;;14.91;61.79;101606.53;5122332;28;20089;-57
2023/01/04 07:01:53;;;;;;;5.53;3.80;;;;;;;14.88;61.62;101613.81;5120355;28;20050;-56
2023/01/04 07:04:21;;;;;;;6.00;3.58;;;;;;;14.85;61.79;101619.34;5131960;28;20146;-59
2023/01/04 07:06:50;;;;;;;5.00;3.13;;;;;;;14.81;61.58;101609.72;5132040;28;20045;-56
2023/01/04 07:09:19;;;;;;;5.97;3.40;;;;;;;14.79;61.70;101619.72;5127183;28;20101;-55
2023/01/04 07:11:47;;;;;;;5.82;3.60;;;;;;;14.77;61.68;101621.63;5111554;28;20123;-58
2023/01/04 07:14:16;;;;;;;5.55;3.42;;;;;;;14.74;61.71;101632.50;5111450;28;20043;-58
2023/01/04 07:16:44;;;;;;;5.15;3.10;;;;;;;14.71;61.77;101630.00;5111441;28;20051;-56
2023/01/04 07:19:12;;;;;;;5.45;3.42;;;;;;;14.69;61.58;101625.69;5111646;28;20100;-56
2023/01/04 07:21:40;;;;;;;4.85;3.30;;;;;;;14.67;61.62;101638.31;5093113;28;20048;-57
2023/01/04 07:24:09;;;;;;;6.00;4.00;;;;;;;14.65;61.56;101632.16;5111389;28;20474;-56
2023/01/04 07:26:38;;;;;;;5.20;3.30;;;;;;;14.61;61.52;101634.16;5111444;28;20114;-56
2023/01/04 07:29:15;;;;;;;6.47;4.03;;;;;;;14.60;61.64;101635.97;5114486;28;20481;-58
2023/01/04 07:31:46;;;;;;;5.05;3.42;;;;;;;14.57;61.51;101611.09;5114853;28;20055;-57
2023/01/04 07:34:16;;;;;;;5.57;3.63;;;;;;;14.55;61.47;101615.69;5114883;28;20082;-57
2023/01/04 07:36:45;;;;;;;5.53;3.85;;;;;;;14.52;61.24;101624.78;5114924;28;20396;-55
2023/01/04 07:39:13;;;;;;;6.22;3.97;;;;;;;14.47;61.42;101626.84;5114875;28;20071;-57
2023/01/04 07:41:43;;;;;;;5.75;3.72;;;;;;;14.47;61.37;101626.84;5114780;28;20052;-54
2023/01/04 07:44:12;;;;;;;6.60;3.95;;;;;;;14.46;61.27;101624.25;5114740;28;20055;-55
2023/01/04 07:46:42;;;;;;;6.93;4.10;;;;;;;14.45;61.44;101630.56;5096069;28;20138;-56
2023/01/04 07:49:12;;;;;;;6.07;3.67;;;;;;;14.44;61.24;101626.13;5114671;28;20126;-57
2023/01/04 07:51:46;;;;;;;5.22;3.63;;;;;;;14.45;61.03;101635.94;5107853;27;20134;-57
2023/01/04 07:54:18;;;;;;;5.57;3.85;;;;;;;14.47;61.61;101636.72;5125586;27;20040;-58
2023/01/04 07:56:48;;;;;;;6.03;3.92;;;;;;;14.53;62.26;101631.88;5127692;27;20047;-57
2023/01/04 07:59:18;;;;;;;8.45;4.00;;;;;;;14.62;62.24;101637.72;5134890;27;20043;-55
2023/01/04 08:01:47;;;;;;;6.25;3.65;;;;;;;14.71;62.11;101638.06;5133540;27;20054;-58
2023/01/04 08:04:16;;;;;;;5.97;3.70;;;;;;;14.79;61.88;101641.19;5115286;27;20190;-56
2023/01/04 08:06:46;;;;;;;5.57;3.70;;;;;;;14.86;61.84;101650.66;5134804;27;20050;-58
2023/01/04 08:09:14;;;;;;;5.30;3.35;;;;;;;14.91;61.65;101638.78;5134527;27;20043;-56
2023/01/04 08:11:42;;;;;;;6.30;4.07;;;;;;;14.94;61.63;101639.44;5134866;27;20050;-57
2023/01/04 08:14:12;;;;;;;5.85;3.78;;;;;;;14.96;61.44;101645.63;5116287;27;20108;-58
2023/01/04 08:16:42;;;;;;;6.55;4.30;;;;;;;14.98;61.53;101640.16;5134631;27;20068;-57
2023/01/04 08:19:14;;;;;;;6.43;3.60;;;;;;;14.98;61.40;101630.28;5115898;27;20047;-56
2023/01/04 08:21:43;;;;;;;5.57;3.67;;;;;;;14.97;61.51;101630.38;5134608;27;20077;-57
2023/01/04 08:24:12;;;;;;;6.35;3.95;;;;;;;14.97;61.37;101625.00;5134471;27;20154;-55
2023/01/04 08:26:40;;;;;;;7.00;4.00;;;;;;;14.96;61.35;101625.94;5134452;27;20040;-57
2023/01/04 08:29:09;;;;;;;8.10;3.88;;;;;;;14.95;61.32;101624.19;5134454;27;20040;-58
2023/01/04 08:31:39;;;;;;;5.60;3.70;;;;;;;14.92;61.38;101619.88;5134372;27;20035;-59
2023/01/04 08:34:09;;;;;;;7.35;4.38;;;;;;;14.91;61.35;101625.34;5134379;27;20050;-55
2023/01/04 08:36:46;;;;;;;5.53;3.78;;;;;;;14.87;61.30;101625.53;5134115;27;20408;-55
2023/01/04 08:39:14;;;;;;;6.15;4.18;;;;;;;14.86;61.13;101620.22;5133696;27;20050;-56
2023/01/04 08:41:52;;;;;;;5.53;3.78;;;;;;;14.85;61.31;101624.72;5115451;27;20074;-57
2023/01/04 08:44:38;;;;;;;6.25;4.20;;;;;;;14.82;61.34;101630.28;5134049;27;20047;-56
2023/01/04 08:47:08;;;;;;;6.20;4.05;;;;;;;14.82;61.37;101621.34;5134032;27;20123;-56
2023/01/04 08:49:38;;;;;;;7.00;4.07;;;;;;;14.79;61.38;101630.44;5133660;27;20046;-57
2023/01/04 08:52:07;;;;;;;5.88;3.95;;;;;;;14.78;61.30;101631.41;5133906;27;20070;-57
2023/01/04 08:54:36;;;;;;;6.20;3.83;;;;;;;14.76;61.30;101630.59;5133807;27;20396;-57
2023/01/04 08:57:04;;;;;;;6.63;4.40;;;;;;;14.75;61.24;101639.63;5115286;27;20130;-57
2023/01/04 08:59:33;;;;;;;6.13;4.35;;;;;;;14.74;61.32;101640.56;5115189;27;20430;-55
2023/01/04 09:02:01;;;;;;;6.85;4.32;;;;;;;14.72;61.35;101639.78;5133798;27;20039;-56
2023/01/04 09:04:34;;;;;;;6.05;3.97;;;;;;;14.71;61.43;101637.19;5115069;27;20043;-56
2023/01/04 09:07:02;;;;;;;6.63;4.35;;;;;;;14.70;61.42;101635.47;5115120;27;20054;-57
2023/01/04 09:09:30;;;;;;;7.18;4.60;;;;;;;14.69;61.55;101629.22;5133266;27;20074;-57
2023/01/04 09:11:59;;;;;;;6.13;4.32;;;;;;;14.68;61.42;101632.88;5133302;27;20054;-57
2023/01/04 09:14:27;;;;;;;7.35;4.43;;;;;;;14.67;61.56;101632.94;5133666;27;20396;-57
2023/01/04 09:16:56;;;;;;;7.80;4.55;;;;;;;14.65;61.66;101624.97;5114935;27;20043;-57
2023/01/04 09:19:24;;;;;;;7.05;4.55;;;;;;;14.65;61.56;101630.34;5133256;27;20040;-57
2023/01/04 09:21:53;;;;;;;6.72;4.15;;;;;;;14.65;61.60;101627.66;5114945;27;20047;-57
2023/01/04 09:24:22;;;;;;;6.30;4.25;;;;;;;14.64;61.67;101619.69;5133338;27;20085;-56
2023/01/04 09:26:50;;;;;;;6.72;4.70;;;;;;;14.64;61.72;101617.88;5133214;27;20118;-58
2023/01/04 09:29:19;;;;;;;6.82;4.43;;;;;;;14.64;61.63;101614.31;5115345;27;20043;-57
2023/01/04 09:31:50;;;;;;;6.35;4.28;;;;;;;14.62;61.63;101603.66;5133059;27;20039;-57
2023/01/04 09:34:18;;;;;;;7.20;4.63;;;;;;;14.64;61.67;101609.81;5133169;27;20126;-57
2023/01/04 09:36:47;;;;;;;7.35;4.50;;;;;;;14.64;61.68;101603.56;5114462;27;20051;-57
2023/01/04 09:39:17;;;;;;;7.47;4.45;;;;;;;14.65;61.79;101599.94;5114383;27;20141;-57
2023/01/04 09:41:56;;;;;;;7.20;4.53;;;;;;;14.64;61.70;101599.06;5114621;27;20043;-57
2023/01/04 09:44:39;;;;;;;7.60;4.22;;;;;;;14.66;61.82;101597.16;5132903;27;20047;-58
2023/01/04 09:47:35;;;;;;;6.63;4.70;;;;;;;14.67;61.78;101590.84;5114269;27;20051;-56
2023/01/04 09:50:18;;;;;;;7.00;4.38;;;;;;;14.67;61.78;101580.13;5113602;28;20557;-57
2023/01/04 09:52:56;;;;;;;6.75;4.70;;;;;;;14.69;61.64;101574.66;5132979;27;20135;-57
2023/01/04 09:55:31;;;;;;;6.32;4.35;;;;;;;14.70;61.67;101571.88;5132803;27;20039;-57
2023/01/04 09:58:20;;;;;;;8.27;4.68;;;;;;;14.71;61.63;101568.22;5114223;28;20055;-56
2023/01/04 10:00:55;;;;;;;7.57;5.13;;;;;;;14.72;61.51;101567.28;5132755;27;20051;-58
2023/01/04 10:03:28;;;;;;;7.45;4.40;;;;;;;14.74;61.67;101564.50;5132863;27;20051;-57
2023/01/04 10:05:56;;;;;;;6.53;4.63;;;;;;;14.76;61.66;101560.75;5114181;28;20051;-56
2023/01/04 10:08:25;;;;;;;6.65;4.70;;;;;;;14.77;61.62;101557.16;5132502;27;20129;-57
2023/01/04 10:11:07;;;;;;;7.25;5.03;;;;;;;14.78;61.61;101558.88;5114039;27;20063;-57
2023/01/04 10:13:53;;;;;;;8.00;4.60;;;;;;;14.81;61.46;101549.78;5114210;28;20220;-58
2023/01/04 10:16:35;;;;;;;8.65;4.93;;;;;;;14.82;61.63;101551.50;5132452;28;20047;-57
2023/01/04 10:19:36;;;;;;;6.28;4.70;;;;;;;14.83;61.59;101545.19;5114065;28;20047;-57
2023/01/04 10:22:30;;;;;;;7.85;4.30;;;;;;;14.86;61.63;101550.38;5132319;28;20043;-55
2023/01/04 10:25:12;;;;;;;6.82;5.05;;;;;;;14.89;61.63;101543.00;5132373;28;20047;-56
2023/01/04 10:27:54;;;;;;;7.63;4.82;;;;;;;14.91;61.67;101542.91;5132531;28;20461;-58
2023/01/04 10:30:33;;;;;;;8.50;4.93;;;;;;;14.93;61.85;101535.63;5132525;28;20071;-57
2023/01/04 10:33:10;;;;;;;7.40;4.72;;;;;;;14.96;61.90;101537.25;5132294;28;20448;-57
2023/01/04 10:35:42;;;;;;;7.53;4.75;;;;;;;14.99;61.81;101537.09;5132092;28;20073;-57
2023/01/04 10:38:17;;;;;;;6.50;4.55;;;;;;;15.01;62.10;101532.50;5132261;28;20051;-57
2023/01/04 10:40:47;;;;;;;7.18;4.40;;;;;;;15.02;62.04;101535.09;5113931;28;20039;-57
2023/01/04 10:43:32;;;;;;;7.28;4.43;;;;;;;15.04;62.34;101527.81;5113865;28;20047;-58
2023/01/04 10:46:26;;;;;;;7.32;4.68;;;;;;;15.09;62.08;101530.25;5132599;28;20190;-57
2023/01/04 10:49:03;;;;;;;7.43;5.00;;;;;;;15.11;62.04;101522.94;5113775;28;20480;-57
2023/01/04 10:51:37;;;;;;;6.80;4.70;;;;;;;15.14;61.98;101522.75;5113843;28;20309;-58
2023/01/04 10:54:16;;;;;;;7.63;4.75;;;;;;;15.16;61.91;101516.34;5132215;28;20071;-58
2023/01/04 10:56:49;;;;;;;7.95;4.80;;;;;;;15.18;62.01;101503.69;5132099;28;20082;-57
2023/01/04 10:59:22;;;;;;;7.07;4.68;;;;;;;15.21;62.00;101513.38;5113687;28;20047;-56
2023/01/04 11:01:52;;;;;;;;;;;;;;;15.25;61.97;101506.88;5115586;27;20053;-57
2023/01/04 11:04:25;;;;;;;6.55;4.65;;;;;;;15.27;61.94;101494.22;5117661;27;19919;-56
2023/01/04 11:06:56;;;;;;;;;;;;;;;15.32;61.87;101499.28;5136456;27;20051;-57
2023/01/04 11:09:27;;;;;;;7.32;4.65;;;;;;;15.33;61.88;101496.50;5117464;27;19919;-57
2023/01/04 11:11:57;;;;;;;7.05;4.75;;;;;;;15.36;62.01;101490.97;5135964;27;20165;-57
2023/01/04 11:14:27;;;;;;;7.47;4.50;;;;;;;15.40;62.04;101489.81;5136059;27;20039;-57
2023/01/04 11:17:08;;;;;;;5.82;4.05;;;;;;;15.42;61.95;101485.19;5135789;27;20043;-56
2023/01/04 11:19:37;;;;;;;;;;;;;;;15.45;62.01;101476.97;5136682;27;20096;-56
2023/01/04 11:22:12;;;;;;;7.30;4.70;;;;;;;15.49;62.12;101479.47;5135656;27;19987;-56
2023/01/04 11:24:42;;;;;;;7.22;4.75;;;;;;;15.52;62.09;101479.25;5117250;27;20044;-58
2023/01/04 11:27:35;;;;;;;6.50;4.45;;;;;;;15.56;61.95;101475.44;5117202;27;20055;-58
2023/01/04 11:30:14;;;;;;;6.60;4.55;;;;;;;15.59;61.79;101464.47;5117199;27;20134;-58
2023/01/04 11:32:52;;;;;;;7.25;4.85;;;;;;;15.62;61.86;101454.44;5135594;27;20125;-57
2023/01/04 11:35:38;;;;;;;6.22;4.28;;;;;;;15.66;61.85;101452.44;5135412;27;20449;-57
2023/01/04 11:38:15;;;;;;;8.55;4.97;;;;;;;15.70;61.84;101453.94;5135376;27;20051;-55
2023/01/04 11:40:56;;;;;;;6.80;4.20;;;;;;;15.74;61.82;101452.81;5135684;27;20496;-56
2023/01/04 11:43:25;;;;;;;6.75;4.50;;;;;;;15.76;62.03;101445.50;5135306;27;20049;-57
2023/01/04 11:46:05;;;;;;;6.93;4.78;;;;;;;15.80;61.83;101438.97;5135383;27;20054;-57
2023/01/04 11:48:42;;;;;;;6.93;4.25;;;;;;;15.85;61.70;101439.56;5135155;27;20138;-57
2023/01/04 11:51:18;;;;;;;6.88;4.28;;;;;;;15.89;61.70;101440.22;5135419;27;20088;-57
2023/01/04 11:53:56;;;;;;;7.45;4.57;;;;;;;15.93;61.71;101436.38;5135179;27;20043;-57
2023/01/04 11:56:28;;;;;;;6.00;4.47;;;;;;;15.97;61.97;101419.94;5135058;27;20048;-57
2023/01/04 11:59:06;;;;;;;6.28;4.10;;;;;;;15.99;62.02;101406.38;5134927;27;20047;-57
2023/01/04 12:01:37;;;;;;;6.38;4.00;;;;;;;16.05;61.77;101413.19;5134729;27;20043;-57
2023/01/04 12:04:12;;;;;;;8.35;4.30;;;;;;;16.08;61.92;101410.28;5135013;27;20442;-57
2023/01/04 12:06:46;;;;;;;6.57;4.20;;;;;;;16.12;61.89;101410.00;5134871;27;20039;-57
2023/01/04 12:09:16;;;;;;;5.55;3.92;;;;;;;16.18;61.98;101412.28;5134621;27;20100;-56
2023/01/04 12:11:49;;;;;;;5.88;3.63;;;;;;;16.22;61.94;101421.03;5134883;27;20071;-57
2023/01/04 12:14:26;;;;;;;6.13;3.85;;;;;;;16.25;61.93;101407.38;5115541;27;20055;-57
2023/01/04 12:17:03;;;;;;;6.03;4.07;;;;;;;16.30;61.81;101408.78;5134861;27;20468;-57
2023/01/04 12:19:32;;;;;;;6.30;3.90;;;;;;;16.34;61.95;101405.91;5134503;27;20143;-58
2023/01/04 12:22:02;;;;;;;5.90;3.88;;;;;;;16.38;61.75;101400.19;5134537;27;20066;-58
2023/01/04 12:24:32;;;;;;;6.07;3.97;;;;;;;16.42;61.88;101401.75;5116090;27;20059;-58
2023/01/04 12:27:01;;;;;;;6.30;3.70;;;;;;;16.45;61.75;101401.53;5134491;27;20442;-57
2023/01/04 12:29:53;;;;;;;5.40;3.60;;;;;;;16.49;61.83;101394.97;5134387;27;20045;-58
2023/01/04 12:32:48;;;;;;;5.70;3.72;;;;;;;16.53;61.76;101383.03;5134490;27;20043;-58
2023/01/04 12:36:05;;;;;;;6.53;3.85;;;;;;;16.59;61.58;101377.22;5096615;27;20047;-57
2023/01/04 12:39:10;;;;;;;5.07;3.53;;;;;;;16.64;61.58;101373.38;5134117;27;20148;-57